sensor_id;sensor_type;location;lat;lon;timestamp;P1;durP1;ratioP1;P2;durP2;ratioP2
21705;SDS011;11014;53.076;18.208;2023-05-10T00:00:35;10.63;;;4.85;;
21705;SDS011;11014;53.076;18.208;2023-05-10T00:03:12;6.80;;;4.50;;
21705;SDS011;11014;53.076;18.208;2023-05-10T00:05:41;7.07;;;4.13;;
21705;SDS011;11014;53.076;18.208;2023-05-10T00:08:09;6.95;;;4.40;;
21705;SDS011;11014;53.076;18.208;2023-05-10T00:10:38;6.22;;;4.32;;
21705;SDS011;11014;53.076;18.208;2023-05-10T00:13:32;7.78;;;4.68;;
21705;SDS011;11014;53.076;18.208;2023-05-10T00:16:01;5.75;;;4.88;;
21705;SDS011;11014;53.076;18.208;2023-05-10T00:18:30;7.22;;;4.72;;
21705;SDS011;11014;53.076;18.208;2023-05-10T00:20:59;8.10;;;4.35;;
21705;SDS011;11014;53.076;18.208;2023-05-10T00:23:27;8.35;;;4.50;;
21705;SDS011;11014;53.076;18.208;2023-05-10T00:25:56;9.63;;;4.57;;
21705;SDS011;11014;53.076;18.208;2023-05-10T00:28:26;6.78;;;4.75;;
21705;SDS011;11014;53.076;18.208;2023-05-10T00:30:57;5.82;;;4.10;;
21705;SDS011;11014;53.076;18.208;2023-05-10T00:33:25;9.20;;;4.32;;
21705;SDS011;11014;53.076;18.208;2023-05-10T00:35:54;6.88;;;4.38;;
21705;SDS011;11014;53.076;18.208;2023-05-10T00:38:22;5.82;;;4.00;;
21705;SDS011;11014;53.076;18.208;2023-05-10T00:40:51;8.73;;;6.72;;
21705;SDS011;11014;53.076;18.208;2023-05-10T00:43:26;10.23;;;5.65;;
21705;SDS011;11014;53.076;18.208;2023-05-10T00:45:55;8.07;;;4.80;;
21705;SDS011;11014;53.076;18.208;2023-05-10T00:48:24;6.63;;;4.30;;
21705;SDS011;11014;53.076;18.208;2023-05-10T00:50:53;6.22;;;4.75;;
21705;SDS011;11014;53.076;18.208;2023-05-10T00:53:22;5.85;;;4.38;;
21705;SDS011;11014;53.076;18.208;2023-05-10T00:55:51;6.25;;;4.25;;
21705;SDS011;11014;53.076;18.208;2023-05-10T00:58:20;7.78;;;4.60;;
21705;SDS011;11014;53.076;18.208;2023-05-10T01:00:49;5.65;;;4.40;;
21705;SDS011;11014;53.076;18.208;2023-05-10T01:03:19;7.82;;;4.75;;
21705;SDS011;11014;53.076;18.208;2023-05-10T01:05:48;8.68;;;4.53;;
21705;SDS011;11014;53.076;18.208;2023-05-10T01:08:18;6.60;;;4.30;;
21705;SDS011;11014;53.076;18.208;2023-05-10T01:10:47;7.05;;;4.40;;
21705;SDS011;11014;53.076;18.208;2023-05-10T01:13:18;8.00;;;4.88;;
21705;SDS011;11014;53.076;18.208;2023-05-10T01:16:10;7.47;;;5.05;;
21705;SDS011;11014;53.076;18.208;2023-05-10T01:18:40;6.55;;;4.90;;
21705;SDS011;11014;53.076;18.208;2023-05-10T01:35:05;10.52;;;5.90;;
21705;SDS011;11014;53.076;18.208;2023-05-10T01:37:44;11.75;;;6.93;;
21705;SDS011;11014;53.076;18.208;2023-05-10T01:40:29;10.35;;;6.05;;
21705;SDS011;11014;53.076;18.208;2023-05-10T01:43:08;8.52;;;5.63;;
21705;SDS011;11014;53.076;18.208;2023-05-10T01:45:50;12.85;;;5.68;;
21705;SDS011;11014;53.076;18.208;2023-05-10T01:48:22;8.50;;;6.10;;
21705;SDS011;11014;53.076;18.208;2023-05-10T01:50:55;9.63;;;5.70;;
21705;SDS011;11014;53.076;18.208;2023-05-10T01:55:55;7.65;;;5.32;;
21705;SDS011;11014;53.076;18.208;2023-05-10T01:58:30;7.80;;;5.38;;
21705;SDS011;11014;53.076;18.208;2023-05-10T02:01:01;10.30;;;5.72;;
21705;SDS011;11014;53.076;18.208;2023-05-10T02:03:32;7.75;;;5.38;;
21705;SDS011;11014;53.076;18.208;2023-05-10T02:06:04;9.83;;;5.87;;
21705;SDS011;11014;53.076;18.208;2023-05-10T02:08:35;9.82;;;5.70;;
21705;SDS011;11014;53.076;18.208;2023-05-10T02:11:05;11.07;;;6.25;;
21705;SDS011;11014;53.076;18.208;2023-05-10T02:13:35;7.68;;;6.30;;
21705;SDS011;11014;53.076;18.208;2023-05-10T02:16:07;9.20;;;5.72;;
21705;SDS011;11014;53.076;18.208;2023-05-10T02:18:37;9.25;;;6.03;;
21705;SDS011;11014;53.076;18.208;2023-05-10T02:21:08;10.52;;;5.68;;
21705;SDS011;11014;53.076;18.208;2023-05-10T02:23:40;9.57;;;5.30;;
21705;SDS011;11014;53.076;18.208;2023-05-10T02:26:09;7.68;;;5.70;;
21705;SDS011;11014;53.076;18.208;2023-05-10T02:28:43;9.07;;;5.40;;
21705;SDS011;11014;53.076;18.208;2023-05-10T02:31:12;8.23;;;5.68;;
21705;SDS011;11014;53.076;18.208;2023-05-10T02:33:42;10.45;;;5.50;;
21705;SDS011;11014;53.076;18.208;2023-05-10T02:36:13;9.02;;;6.35;;
21705;SDS011;11014;53.076;18.208;2023-05-10T02:38:44;7.68;;;5.72;;
21705;SDS011;11014;53.076;18.208;2023-05-10T02:41:13;10.40;;;6.18;;
21705;SDS011;11014;53.076;18.208;2023-05-10T02:43:43;6.97;;;5.30;;
21705;SDS011;11014;53.076;18.208;2023-05-10T02:46:13;10.43;;;6.35;;
21705;SDS011;11014;53.076;18.208;2023-05-10T02:48:42;10.57;;;6.13;;
21705;SDS011;11014;53.076;18.208;2023-05-10T02:51:12;6.93;;;5.53;;
21705;SDS011;11014;53.076;18.208;2023-05-10T02:54:22;8.70;;;5.57;;
21705;SDS011;11014;53.076;18.208;2023-05-10T02:57:05;9.88;;;5.43;;
21705;SDS011;11014;53.076;18.208;2023-05-10T03:02:30;9.85;;;5.80;;
21705;SDS011;11014;53.076;18.208;2023-05-10T03:04:59;10.75;;;5.80;;
21705;SDS011;11014;53.076;18.208;2023-05-10T03:07:28;7.85;;;5.40;;
21705;SDS011;11014;53.076;18.208;2023-05-10T03:09:59;8.45;;;5.57;;
21705;SDS011;11014;53.076;18.208;2023-05-10T03:18:11;7.78;;;5.32;;
21705;SDS011;11014;53.076;18.208;2023-05-10T03:20:50;12.30;;;5.50;;
21705;SDS011;11014;53.076;18.208;2023-05-10T03:23:34;9.95;;;5.20;;
21705;SDS011;11014;53.076;18.208;2023-05-10T03:26:04;9.95;;;5.78;;
21705;SDS011;11014;53.076;18.208;2023-05-10T03:28:34;8.05;;;5.82;;
21705;SDS011;11014;53.076;18.208;2023-05-10T03:31:05;9.60;;;6.10;;
21705;SDS011;11014;53.076;18.208;2023-05-10T03:33:34;7.93;;;5.22;;
21705;SDS011;11014;53.076;18.208;2023-05-10T03:36:03;9.38;;;6.25;;
21705;SDS011;11014;53.076;18.208;2023-05-10T03:38:32;8.25;;;5.75;;
21705;SDS011;11014;53.076;18.208;2023-05-10T03:41:01;13.73;;;6.60;;
21705;SDS011;11014;53.076;18.208;2023-05-10T03:43:29;11.68;;;6.28;;
21705;SDS011;11014;53.076;18.208;2023-05-10T03:45:58;10.57;;;5.63;;
21705;SDS011;11014;53.076;18.208;2023-05-10T03:48:26;9.52;;;5.63;;
21705;SDS011;11014;53.076;18.208;2023-05-10T03:50:55;11.80;;;5.68;;
21705;SDS011;11014;53.076;18.208;2023-05-10T03:53:24;8.00;;;5.07;;
21705;SDS011;11014;53.076;18.208;2023-05-10T03:55:53;11.30;;;6.00;;
21705;SDS011;11014;53.076;18.208;2023-05-10T03:58:22;10.63;;;5.65;;
21705;SDS011;11014;53.076;18.208;2023-05-10T04:00:51;9.25;;;5.47;;
21705;SDS011;11014;53.076;18.208;2023-05-10T04:03:20;6.85;;;5.03;;
21705;SDS011;11014;53.076;18.208;2023-05-10T04:05:49;8.20;;;5.40;;
21705;SDS011;11014;53.076;18.208;2023-05-10T04:08:27;6.40;;;5.18;;
21705;SDS011;11014;53.076;18.208;2023-05-10T04:11:12;9.77;;;5.40;;
21705;SDS011;11014;53.076;18.208;2023-05-10T04:13:42;8.05;;;5.32;;
21705;SDS011;11014;53.076;18.208;2023-05-10T04:16:11;10.20;;;5.55;;
21705;SDS011;11014;53.076;18.208;2023-05-10T04:18:40;12.68;;;5.20;;
21705;SDS011;11014;53.076;18.208;2023-05-10T04:21:12;10.30;;;5.88;;
21705;SDS011;11014;53.076;18.208;2023-05-10T04:26:10;8.55;;;5.00;;
21705;SDS011;11014;53.076;18.208;2023-05-10T04:28:38;11.38;;;5.03;;
21705;SDS011;11014;53.076;18.208;2023-05-10T04:31:07;12.98;;;5.47;;
21705;SDS011;11014;53.076;18.208;2023-05-10T04:33:37;7.25;;;5.50;;
21705;SDS011;11014;53.076;18.208;2023-05-10T04:36:05;7.07;;;5.05;;
21705;SDS011;11014;53.076;18.208;2023-05-10T04:38:34;11.07;;;5.57;;
21705;SDS011;11014;53.076;18.208;2023-05-10T04:41:06;6.93;;;5.32;;
21705;SDS011;11014;53.076;18.208;2023-05-10T04:43:35;9.23;;;5.60;;
21705;SDS011;11014;53.076;18.208;2023-05-10T04:46:05;10.68;;;6.28;;
21705;SDS011;11014;53.076;18.208;2023-05-10T04:48:35;9.23;;;6.15;;
21705;SDS011;11014;53.076;18.208;2023-05-10T04:51:03;7.93;;;5.45;;
21705;SDS011;11014;53.076;18.208;2023-05-10T04:53:32;9.88;;;5.20;;
21705;SDS011;11014;53.076;18.208;2023-05-10T04:56:01;6.35;;;5.10;;
21705;SDS011;11014;53.076;18.208;2023-05-10T04:58:29;13.95;;;5.82;;
21705;SDS011;11014;53.076;18.208;2023-05-10T05:01:04;8.88;;;4.90;;
21705;SDS011;11014;53.076;18.208;2023-05-10T05:03:33;9.13;;;4.53;;
21705;SDS011;11014;53.076;18.208;2023-05-10T05:06:02;8.38;;;4.75;;
21705;SDS011;11014;53.076;18.208;2023-05-10T05:08:31;9.63;;;4.72;;
21705;SDS011;11014;53.076;18.208;2023-05-10T05:11:00;7.57;;;5.45;;
21705;SDS011;11014;53.076;18.208;2023-05-10T05:13:28;6.32;;;4.60;;
21705;SDS011;11014;53.076;18.208;2023-05-10T05:15:59;9.07;;;4.50;;
21705;SDS011;11014;53.076;18.208;2023-05-10T05:18:29;9.00;;;4.82;;
21705;SDS011;11014;53.076;18.208;2023-05-10T05:20:57;11.85;;;6.60;;
21705;SDS011;11014;53.076;18.208;2023-05-10T05:23:26;9.52;;;5.03;;
21705;SDS011;11014;53.076;18.208;2023-05-10T05:25:55;10.27;;;4.75;;
21705;SDS011;11014;53.076;18.208;2023-05-10T05:28:23;5.90;;;4.15;;
21705;SDS011;11014;53.076;18.208;2023-05-10T05:30:52;6.93;;;4.30;;
21705;SDS011;11014;53.076;18.208;2023-05-10T05:33:20;8.13;;;4.22;;
21705;SDS011;11014;53.076;18.208;2023-05-10T05:35:49;8.43;;;4.20;;
21705;SDS011;11014;53.076;18.208;2023-05-10T05:38:18;8.48;;;4.47;;
21705;SDS011;11014;53.076;18.208;2023-05-10T05:40:47;9.38;;;4.53;;
21705;SDS011;11014;53.076;18.208;2023-05-10T05:43:15;7.32;;;3.88;;
21705;SDS011;11014;53.076;18.208;2023-05-10T05:45:44;6.80;;;4.13;;
21705;SDS011;11014;53.076;18.208;2023-05-10T05:48:12;8.77;;;3.90;;
21705;SDS011;11014;53.076;18.208;2023-05-10T05:50:41;8.13;;;3.85;;
21705;SDS011;11014;53.076;18.208;2023-05-10T05:53:09;5.88;;;3.78;;
21705;SDS011;11014;53.076;18.208;2023-05-10T05:55:38;6.13;;;4.10;;
21705;SDS011;11014;53.076;18.208;2023-05-10T05:58:06;9.00;;;3.90;;
21705;SDS011;11014;53.076;18.208;2023-05-10T06:00:35;7.20;;;3.65;;
21705;SDS011;11014;53.076;18.208;2023-05-10T06:03:03;6.45;;;3.90;;
21705;SDS011;11014;53.076;18.208;2023-05-10T06:05:32;6.38;;;3.83;;
21705;SDS011;11014;53.076;18.208;2023-05-10T06:08:00;6.68;;;3.88;;
21705;SDS011;11014;53.076;18.208;2023-05-10T06:10:29;5.90;;;3.78;;
21705;SDS011;11014;53.076;18.208;2023-05-10T06:12:58;7.70;;;3.70;;
21705;SDS011;11014;53.076;18.208;2023-05-10T06:15:27;14.98;;;4.28;;
21705;SDS011;11014;53.076;18.208;2023-05-10T06:17:55;11.25;;;4.28;;
21705;SDS011;11014;53.076;18.208;2023-05-10T06:20:24;5.13;;;3.50;;
21705;SDS011;11014;53.076;18.208;2023-05-10T06:22:52;6.32;;;3.50;;
21705;SDS011;11014;53.076;18.208;2023-05-10T06:25:21;8.13;;;3.40;;
21705;SDS011;11014;53.076;18.208;2023-05-10T06:27:49;6.90;;;3.35;;
21705;SDS011;11014;53.076;18.208;2023-05-10T06:30:20;5.87;;;3.47;;
21705;SDS011;11014;53.076;18.208;2023-05-10T06:32:50;5.15;;;3.40;;
21705;SDS011;11014;53.076;18.208;2023-05-10T06:35:20;10.02;;;3.90;;
21705;SDS011;11014;53.076;18.208;2023-05-10T06:37:48;6.18;;;3.10;;
21705;SDS011;11014;53.076;18.208;2023-05-10T06:40:18;7.70;;;3.30;;
21705;SDS011;11014;53.076;18.208;2023-05-10T06:42:47;9.02;;;3.45;;
21705;SDS011;11014;53.076;18.208;2023-05-10T06:45:16;6.47;;;3.78;;
21705;SDS011;11014;53.076;18.208;2023-05-10T06:47:45;8.45;;;3.40;;
21705;SDS011;11014;53.076;18.208;2023-05-10T06:50:14;7.05;;;3.10;;
21705;SDS011;11014;53.076;18.208;2023-05-10T06:52:42;6.78;;;3.45;;
21705;SDS011;11014;53.076;18.208;2023-05-10T06:55:14;7.80;;;3.58;;
21705;SDS011;11014;53.076;18.208;2023-05-10T06:57:43;7.43;;;3.25;;
21705;SDS011;11014;53.076;18.208;2023-05-10T07:00:12;7.75;;;3.40;;
21705;SDS011;11014;53.076;18.208;2023-05-10T07:02:41;14.48;;;4.05;;
21705;SDS011;11014;53.076;18.208;2023-05-10T07:05:10;7.80;;;3.58;;
21705;SDS011;11014;53.076;18.208;2023-05-10T07:07:38;7.20;;;3.38;;
21705;SDS011;11014;53.076;18.208;2023-05-10T07:10:07;8.68;;;3.58;;
21705;SDS011;11014;53.076;18.208;2023-05-10T07:12:36;7.10;;;3.28;;
21705;SDS011;11014;53.076;18.208;2023-05-10T07:15:06;4.82;;;3.60;;
21705;SDS011;11014;53.076;18.208;2023-05-10T07:17:35;8.23;;;3.63;;
21705;SDS011;11014;53.076;18.208;2023-05-10T07:20:04;6.00;;;3.15;;
21705;SDS011;11014;53.076;18.208;2023-05-10T07:22:33;7.78;;;3.33;;
21705;SDS011;11014;53.076;18.208;2023-05-10T07:25:01;10.77;;;3.65;;
21705;SDS011;11014;53.076;18.208;2023-05-10T07:27:30;8.40;;;3.65;;
21705;SDS011;11014;53.076;18.208;2023-05-10T07:29:58;10.52;;;3.85;;
21705;SDS011;11014;53.076;18.208;2023-05-10T07:32:27;6.78;;;3.53;;
21705;SDS011;11014;53.076;18.208;2023-05-10T07:34:55;6.25;;;3.10;;
21705;SDS011;11014;53.076;18.208;2023-05-10T07:37:24;7.15;;;3.15;;
21705;SDS011;11014;53.076;18.208;2023-05-10T07:39:52;8.30;;;3.83;;
21705;SDS011;11014;53.076;18.208;2023-05-10T07:42:21;10.18;;;3.28;;
21705;SDS011;11014;53.076;18.208;2023-05-10T07:44:49;13.60;;;4.05;;
21705;SDS011;11014;53.076;18.208;2023-05-10T07:47:19;12.38;;;3.63;;
21705;SDS011;11014;53.076;18.208;2023-05-10T07:49:47;16.17;;;3.22;;
21705;SDS011;11014;53.076;18.208;2023-05-10T07:52:16;10.93;;;3.35;;
21705;SDS011;11014;53.076;18.208;2023-05-10T07:54:44;10.15;;;3.20;;
21705;SDS011;11014;53.076;18.208;2023-05-10T07:57:13;6.82;;;3.28;;
21705;SDS011;11014;53.076;18.208;2023-05-10T07:59:43;7.85;;;3.60;;
21705;SDS011;11014;53.076;18.208;2023-05-10T08:02:12;7.75;;;3.40;;
21705;SDS011;11014;53.076;18.208;2023-05-10T08:04:41;12.10;;;3.47;;
21705;SDS011;11014;53.076;18.208;2023-05-10T08:07:09;9.27;;;3.40;;
21705;SDS011;11014;53.076;18.208;2023-05-10T08:09:38;8.07;;;3.45;;
21705;SDS011;11014;53.076;18.208;2023-05-10T08:12:07;7.38;;;3.30;;
21705;SDS011;11014;53.076;18.208;2023-05-10T08:14:35;31.58;;;4.38;;
21705;SDS011;11014;53.076;18.208;2023-05-10T08:17:07;10.43;;;3.22;;
21705;SDS011;11014;53.076;18.208;2023-05-10T08:19:35;5.88;;;3.10;;
21705;SDS011;11014;53.076;18.208;2023-05-10T08:22:03;7.68;;;3.30;;
21705;SDS011;11014;53.076;18.208;2023-05-10T08:24:32;11.75;;;3.13;;
21705;SDS011;11014;53.076;18.208;2023-05-10T08:27:02;13.07;;;3.95;;
21705;SDS011;11014;53.076;18.208;2023-05-10T08:29:31;7.68;;;3.10;;
21705;SDS011;11014;53.076;18.208;2023-05-10T08:32:13;11.32;;;3.00;;
21705;SDS011;11014;53.076;18.208;2023-05-10T08:34:42;20.77;;;3.85;;
21705;SDS011;11014;53.076;18.208;2023-05-10T08:37:10;7.90;;;3.13;;
21705;SDS011;11014;53.076;18.208;2023-05-10T08:39:41;9.88;;;2.97;;
21705;SDS011;11014;53.076;18.208;2023-05-10T08:42:10;7.78;;;3.00;;
21705;SDS011;11014;53.076;18.208;2023-05-10T08:44:40;10.80;;;3.20;;
21705;SDS011;11014;53.076;18.208;2023-05-10T08:47:10;16.85;;;3.25;;
21705;SDS011;11014;53.076;18.208;2023-05-10T08:49:40;7.22;;;3.05;;
21705;SDS011;11014;53.076;18.208;2023-05-10T08:52:10;4.18;;;2.67;;
21705;SDS011;11014;53.076;18.208;2023-05-10T08:54:40;24.05;;;3.58;;
21705;SDS011;11014;53.076;18.208;2023-05-10T08:57:10;7.13;;;3.42;;
21705;SDS011;11014;53.076;18.208;2023-05-10T08:59:38;10.98;;;2.85;;
21705;SDS011;11014;53.076;18.208;2023-05-10T09:02:08;14.02;;;3.40;;
21705;SDS011;11014;53.076;18.208;2023-05-10T09:04:39;12.20;;;3.53;;
21705;SDS011;11014;53.076;18.208;2023-05-10T09:07:09;23.77;;;4.20;;
21705;SDS011;11014;53.076;18.208;2023-05-10T09:09:38;13.68;;;3.72;;
21705;SDS011;11014;53.076;18.208;2023-05-10T09:12:07;6.30;;;2.55;;
21705;SDS011;11014;53.076;18.208;2023-05-10T09:14:38;16.55;;;3.83;;
21705;SDS011;11014;53.076;18.208;2023-05-10T09:17:08;4.72;;;2.97;;
21705;SDS011;11014;53.076;18.208;2023-05-10T09:19:37;9.30;;;3.45;;
21705;SDS011;11014;53.076;18.208;2023-05-10T09:22:06;15.40;;;3.42;;
21705;SDS011;11014;53.076;18.208;2023-05-10T09:24:35;13.43;;;3.25;;
21705;SDS011;11014;53.076;18.208;2023-05-10T09:27:04;10.55;;;2.85;;
21705;SDS011;11014;53.076;18.208;2023-05-10T09:29:39;7.47;;;3.00;;
21705;SDS011;11014;53.076;18.208;2023-05-10T09:32:09;10.90;;;3.05;;
21705;SDS011;11014;53.076;18.208;2023-05-10T09:34:40;15.27;;;4.07;;
21705;SDS011;11014;53.076;18.208;2023-05-10T09:37:09;9.10;;;2.80;;
21705;SDS011;11014;53.076;18.208;2023-05-10T09:39:38;11.00;;;3.00;;
21705;SDS011;11014;53.076;18.208;2023-05-10T09:42:10;6.35;;;3.03;;
21705;SDS011;11014;53.076;18.208;2023-05-10T09:44:38;7.22;;;3.95;;
21705;SDS011;11014;53.076;18.208;2023-05-10T09:47:08;9.27;;;3.30;;
21705;SDS011;11014;53.076;18.208;2023-05-10T09:49:37;7.03;;;2.70;;
21705;SDS011;11014;53.076;18.208;2023-05-10T09:52:06;6.68;;;2.75;;
21705;SDS011;11014;53.076;18.208;2023-05-10T09:54:35;9.75;;;3.08;;
21705;SDS011;11014;53.076;18.208;2023-05-10T09:57:04;17.60;;;3.78;;
21705;SDS011;11014;53.076;18.208;2023-05-10T09:59:32;8.15;;;3.30;;
21705;SDS011;11014;53.076;18.208;2023-05-10T10:02:03;13.35;;;3.38;;
21705;SDS011;11014;53.076;18.208;2023-05-10T10:04:31;11.85;;;3.05;;
21705;SDS011;11014;53.076;18.208;2023-05-10T10:07:01;9.68;;;3.22;;
21705;SDS011;11014;53.076;18.208;2023-05-10T10:09:32;5.93;;;2.88;;
21705;SDS011;11014;53.076;18.208;2023-05-10T10:12:02;15.93;;;3.40;;
21705;SDS011;11014;53.076;18.208;2023-05-10T10:14:31;4.20;;;3.08;;
21705;SDS011;11014;53.076;18.208;2023-05-10T10:17:00;4.05;;;2.83;;
21705;SDS011;11014;53.076;18.208;2023-05-10T10:19:35;4.60;;;2.95;;
21705;SDS011;11014;53.076;18.208;2023-05-10T10:22:05;13.65;;;3.70;;
21705;SDS011;11014;53.076;18.208;2023-05-10T10:24:34;51.65;;;6.75;;
21705;SDS011;11014;53.076;18.208;2023-05-10T10:27:24;8.82;;;3.25;;
21705;SDS011;11014;53.076;18.208;2023-05-10T10:35:57;12.98;;;3.70;;
21705;SDS011;11014;53.076;18.208;2023-05-10T10:41:33;9.55;;;3.47;;
21705;SDS011;11014;53.076;18.208;2023-05-10T10:52:23;9.65;;;3.40;;
21705;SDS011;11014;53.076;18.208;2023-05-10T10:55:09;7.18;;;3.20;;
21705;SDS011;11014;53.076;18.208;2023-05-10T10:57:43;9.60;;;3.58;;
21705;SDS011;11014;53.076;18.208;2023-05-10T11:02:59;14.43;;;4.13;;
21705;SDS011;11014;53.076;18.208;2023-05-10T11:08:09;11.02;;;3.33;;
21705;SDS011;11014;53.076;18.208;2023-05-10T11:10:49;11.95;;;4.00;;
21705;SDS011;11014;53.076;18.208;2023-05-10T11:13:34;8.18;;;3.70;;
21705;SDS011;11014;53.076;18.208;2023-05-10T11:16:24;7.80;;;3.20;;
21705;SDS011;11014;53.076;18.208;2023-05-10T11:19:03;15.38;;;3.35;;
21705;SDS011;11014;53.076;18.208;2023-05-10T11:21:44;7.85;;;3.20;;
21705;SDS011;11014;53.076;18.208;2023-05-10T11:24:15;10.93;;;3.50;;
21705;SDS011;11014;53.076;18.208;2023-05-10T11:26:45;8.88;;;3.63;;
21705;SDS011;11014;53.076;18.208;2023-05-10T11:29:17;16.50;;;3.58;;
21705;SDS011;11014;53.076;18.208;2023-05-10T11:31:46;8.00;;;3.33;;
21705;SDS011;11014;53.076;18.208;2023-05-10T11:34:25;5.88;;;3.25;;
21705;SDS011;11014;53.076;18.208;2023-05-10T11:37:06;14.95;;;3.65;;
21705;SDS011;11014;53.076;18.208;2023-05-10T11:39:34;12.20;;;3.08;;
21705;SDS011;11014;53.076;18.208;2023-05-10T11:42:03;11.07;;;3.40;;
21705;SDS011;11014;53.076;18.208;2023-05-10T11:44:32;9.10;;;3.00;;
21705;SDS011;11014;53.076;18.208;2023-05-10T11:47:01;9.38;;;2.90;;
21705;SDS011;11014;53.076;18.208;2023-05-10T11:49:29;6.45;;;2.70;;
21705;SDS011;11014;53.076;18.208;2023-05-10T11:52:08;11.77;;;2.90;;
21705;SDS011;11014;53.076;18.208;2023-05-10T11:54:36;11.98;;;3.05;;
21705;SDS011;11014;53.076;18.208;2023-05-10T11:57:05;11.68;;;3.10;;
21705;SDS011;11014;53.076;18.208;2023-05-10T11:59:34;6.70;;;3.22;;
21705;SDS011;11014;53.076;18.208;2023-05-10T12:02:02;7.35;;;3.20;;
21705;SDS011;11014;53.076;18.208;2023-05-10T12:04:31;6.80;;;2.90;;
21705;SDS011;11014;53.076;18.208;2023-05-10T12:07:00;16.38;;;4.05;;
21705;SDS011;11014;53.076;18.208;2023-05-10T12:09:29;9.93;;;3.38;;
21705;SDS011;11014;53.076;18.208;2023-05-10T12:14:44;8.65;;;2.85;;
21705;SDS011;11014;53.076;18.208;2023-05-10T12:17:17;10.30;;;2.90;;
21705;SDS011;11014;53.076;18.208;2023-05-10T12:19:45;10.45;;;2.90;;
21705;SDS011;11014;53.076;18.208;2023-05-10T12:22:15;7.80;;;2.90;;
21705;SDS011;11014;53.076;18.208;2023-05-10T12:24:45;10.18;;;3.63;;
21705;SDS011;11014;53.076;18.208;2023-05-10T12:27:13;5.85;;;3.45;;
21705;SDS011;11014;53.076;18.208;2023-05-10T12:29:42;7.15;;;2.75;;
21705;SDS011;11014;53.076;18.208;2023-05-10T12:34:42;10.55;;;3.20;;
21705;SDS011;11014;53.076;18.208;2023-05-10T12:37:11;28.27;;;5.03;;
21705;SDS011;11014;53.076;18.208;2023-05-10T12:39:40;13.98;;;2.92;;
21705;SDS011;11014;53.076;18.208;2023-05-10T12:42:10;7.75;;;3.10;;
21705;SDS011;11014;53.076;18.208;2023-05-10T12:44:39;17.23;;;3.42;;
21705;SDS011;11014;53.076;18.208;2023-05-10T12:47:08;7.40;;;2.95;;
21705;SDS011;11014;53.076;18.208;2023-05-10T12:49:36;12.77;;;3.78;;
21705;SDS011;11014;53.076;18.208;2023-05-10T12:52:05;12.20;;;3.10;;
21705;SDS011;11014;53.076;18.208;2023-05-10T12:54:33;7.00;;;2.60;;
21705;SDS011;11014;53.076;18.208;2023-05-10T12:57:02;19.35;;;3.95;;
21705;SDS011;11014;53.076;18.208;2023-05-10T12:59:30;6.18;;;3.10;;
21705;SDS011;11014;53.076;18.208;2023-05-10T13:01:59;6.30;;;2.90;;
21705;SDS011;11014;53.076;18.208;2023-05-10T13:04:27;5.88;;;3.20;;
21705;SDS011;11014;53.076;18.208;2023-05-10T13:06:56;21.73;;;3.67;;
21705;SDS011;11014;53.076;18.208;2023-05-10T13:09:28;7.47;;;2.90;;
21705;SDS011;11014;53.076;18.208;2023-05-10T13:11:57;21.38;;;3.70;;
21705;SDS011;11014;53.076;18.208;2023-05-10T13:14:26;15.30;;;3.55;;
21705;SDS011;11014;53.076;18.208;2023-05-10T13:16:55;12.18;;;3.67;;
21705;SDS011;11014;53.076;18.208;2023-05-10T13:19:25;11.30;;;2.90;;
21705;SDS011;11014;53.076;18.208;2023-05-10T13:21:54;8.05;;;3.38;;
21705;SDS011;11014;53.076;18.208;2023-05-10T13:24:22;9.88;;;3.53;;
21705;SDS011;11014;53.076;18.208;2023-05-10T13:26:51;18.60;;;4.68;;
21705;SDS011;11014;53.076;18.208;2023-05-10T13:29:20;12.27;;;3.20;;
21705;SDS011;11014;53.076;18.208;2023-05-10T13:31:50;7.65;;;3.75;;
21705;SDS011;11014;53.076;18.208;2023-05-10T13:34:24;9.63;;;3.92;;
21705;SDS011;11014;53.076;18.208;2023-05-10T13:36:53;8.38;;;3.08;;
21705;SDS011;11014;53.076;18.208;2023-05-10T13:39:27;10.30;;;3.80;;
21705;SDS011;11014;53.076;18.208;2023-05-10T13:42:01;8.93;;;3.58;;
21705;SDS011;11014;53.076;18.208;2023-05-10T13:44:30;9.93;;;3.67;;
21705;SDS011;11014;53.076;18.208;2023-05-10T13:47:01;7.00;;;3.65;;
21705;SDS011;11014;53.076;18.208;2023-05-10T13:49:30;8.13;;;3.50;;
21705;SDS011;11014;53.076;18.208;2023-05-10T13:51:59;14.05;;;4.10;;
21705;SDS011;11014;53.076;18.208;2023-05-10T13:54:40;10.45;;;3.30;;
21705;SDS011;11014;53.076;18.208;2023-05-10T13:58:26;7.78;;;3.13;;
21705;SDS011;11014;53.076;18.208;2023-05-10T14:00:57;8.18;;;3.30;;
21705;SDS011;11014;53.076;18.208;2023-05-10T14:03:28;13.60;;;4.07;;
21705;SDS011;11014;53.076;18.208;2023-05-10T14:05:57;11.05;;;3.28;;
21705;SDS011;11014;53.076;18.208;2023-05-10T14:08:27;6.60;;;3.20;;
21705;SDS011;11014;53.076;18.208;2023-05-10T14:10:55;16.02;;;3.50;;
21705;SDS011;11014;53.076;18.208;2023-05-10T14:13:25;18.38;;;4.18;;
21705;SDS011;11014;53.076;18.208;2023-05-10T14:15:53;13.40;;;3.97;;
21705;SDS011;11014;53.076;18.208;2023-05-10T14:18:23;11.13;;;3.47;;
21705;SDS011;11014;53.076;18.208;2023-05-10T14:20:52;10.02;;;3.42;;
21705;SDS011;11014;53.076;18.208;2023-05-10T14:23:24;19.42;;;4.00;;
21705;SDS011;11014;53.076;18.208;2023-05-10T14:25:53;10.68;;;3.80;;
21705;SDS011;11014;53.076;18.208;2023-05-10T14:28:41;11.63;;;3.42;;
21705;SDS011;11014;53.076;18.208;2023-05-10T14:31:09;11.30;;;3.75;;
21705;SDS011;11014;53.076;18.208;2023-05-10T14:33:38;8.63;;;3.22;;
21705;SDS011;11014;53.076;18.208;2023-05-10T14:36:07;11.13;;;3.30;;
21705;SDS011;11014;53.076;18.208;2023-05-10T14:38:39;6.07;;;3.10;;
21705;SDS011;11014;53.076;18.208;2023-05-10T14:41:08;9.18;;;3.60;;
21705;SDS011;11014;53.076;18.208;2023-05-10T14:43:38;7.65;;;3.65;;
21705;SDS011;11014;53.076;18.208;2023-05-10T14:46:08;7.25;;;3.47;;
21705;SDS011;11014;53.076;18.208;2023-05-10T14:48:37;5.38;;;3.50;;
21705;SDS011;11014;53.076;18.208;2023-05-10T14:51:06;6.90;;;3.58;;
21705;SDS011;11014;53.076;18.208;2023-05-10T14:53:34;5.05;;;3.35;;
21705;SDS011;11014;53.076;18.208;2023-05-10T14:56:03;9.40;;;3.55;;
21705;SDS011;11014;53.076;18.208;2023-05-10T14:58:32;8.77;;;3.97;;
21705;SDS011;11014;53.076;18.208;2023-05-10T15:01:01;7.15;;;3.42;;
21705;SDS011;11014;53.076;18.208;2023-05-10T15:03:30;7.13;;;3.63;;
21705;SDS011;11014;53.076;18.208;2023-05-10T15:05:59;25.65;;;4.55;;
21705;SDS011;11014;53.076;18.208;2023-05-10T15:08:31;5.75;;;3.50;;
21705;SDS011;11014;53.076;18.208;2023-05-10T15:11:00;7.90;;;3.00;;
21705;SDS011;11014;53.076;18.208;2023-05-10T15:13:32;7.03;;;3.45;;
21705;SDS011;11014;53.076;18.208;2023-05-10T15:16:01;3.67;;;3.28;;
21705;SDS011;11014;53.076;18.208;2023-05-10T15:18:30;7.57;;;2.95;;
21705;SDS011;11014;53.076;18.208;2023-05-10T15:20:59;9.27;;;3.50;;
21705;SDS011;11014;53.076;18.208;2023-05-10T15:23:27;5.57;;;3.03;;
21705;SDS011;11014;53.076;18.208;2023-05-10T15:25:58;10.40;;;3.10;;
21705;SDS011;11014;53.076;18.208;2023-05-10T15:31:20;3.83;;;3.22;;
21705;SDS011;11014;53.076;18.208;2023-05-10T15:33:49;30.63;;;4.78;;
21705;SDS011;11014;53.076;18.208;2023-05-10T15:36:18;35.53;;;4.90;;
21705;SDS011;11014;53.076;18.208;2023-05-10T15:38:47;8.55;;;3.78;;
21705;SDS011;11014;53.076;18.208;2023-05-10T15:41:16;5.57;;;3.05;;
21705;SDS011;11014;53.076;18.208;2023-05-10T15:43:45;5.85;;;3.60;;
21705;SDS011;11014;53.076;18.208;2023-05-10T15:46:14;7.40;;;4.88;;
21705;SDS011;11014;53.076;18.208;2023-05-10T15:48:42;7.93;;;3.90;;